Bath, South Carolina
Current Conditions -  °F | °C
As of 6:53 PM on Saturday 22 Nov 2014 (Local Time) from KDNL Reporting Station
Clear Clear  
Wind Chill: 58°   Ceiling: Unl
Heat Index: 58°   Visibility: 10mi
Dew Point: 27°   Wind: 7mph
Humidity: 31%   Direction: 60°ENE
Pressure: 30.31"   Gusts: NA
Location:  33.5°N, 81.87°W
Report Text: KDNL 222353Z AUTO 06006KT 10SM CLR 14/M03 A3031 RMK AO2 SLP264 T01441028 10178 20144 58006
Loading
Personal Weather Stations






























Interactive Weather Map New forecast layout! Learn more

10-Day Weather Forecast

Advertisements
Track Severe Weather on mobile